sensor_id;sensor_type;location;lat;lon;timestamp;P1;durP1;ratioP1;P2;durP2;ratioP2
29280;SDS011;25048;49.590;11.026;2023-08-20T00:01:56;6.12;;;5.47;;
29280;SDS011;25048;49.590;11.026;2023-08-20T00:04:25;9.30;;;5.40;;
29280;SDS011;25048;49.590;11.026;2023-08-20T00:06:54;7.22;;;5.30;;
29280;SDS011;25048;49.590;11.026;2023-08-20T00:09:22;6.45;;;5.55;;
29280;SDS011;25048;49.590;11.026;2023-08-20T00:11:51;8.78;;;6.00;;
29280;SDS011;25048;49.590;11.026;2023-08-20T00:14:18;8.55;;;5.87;;
29280;SDS011;25048;49.590;11.026;2023-08-20T00:16:46;16.62;;;6.42;;
29280;SDS011;25048;49.590;11.026;2023-08-20T00:19:14;8.23;;;5.47;;
29280;SDS011;25048;49.590;11.026;2023-08-20T00:21:41;6.70;;;5.12;;
29280;SDS011;25048;49.590;11.026;2023-08-20T00:24:10;9.50;;;5.45;;
29280;SDS011;25048;49.590;11.026;2023-08-20T00:26:39;11.55;;;5.65;;
29280;SDS011;25048;49.590;11.026;2023-08-20T00:29:06;11.38;;;5.62;;
29280;SDS011;25048;49.590;11.026;2023-08-20T00:31:34;11.10;;;5.87;;
29280;SDS011;25048;49.590;11.026;2023-08-20T00:34:01;8.18;;;5.87;;
29280;SDS011;25048;49.590;11.026;2023-08-20T00:36:29;6.62;;;5.58;;
29280;SDS011;25048;49.590;11.026;2023-08-20T00:38:56;7.67;;;5.83;;
29280;SDS011;25048;49.590;11.026;2023-08-20T00:41:24;7.00;;;5.15;;
29280;SDS011;25048;49.590;11.026;2023-08-20T00:43:51;13.93;;;5.60;;
29280;SDS011;25048;49.590;11.026;2023-08-20T00:46:19;10.08;;;5.78;;
29280;SDS011;25048;49.590;11.026;2023-08-20T00:48:46;11.60;;;6.70;;
29280;SDS011;25048;49.590;11.026;2023-08-20T00:51:14;8.40;;;6.05;;
29280;SDS011;25048;49.590;11.026;2023-08-20T00:53:42;7.20;;;5.75;;
29280;SDS011;25048;49.590;11.026;2023-08-20T00:56:10;7.55;;;5.55;;
29280;SDS011;25048;49.590;11.026;2023-08-20T00:58:38;10.58;;;6.37;;
29280;SDS011;25048;49.590;11.026;2023-08-20T01:01:05;8.05;;;5.75;;
29280;SDS011;25048;49.590;11.026;2023-08-20T01:03:33;8.13;;;5.87;;
29280;SDS011;25048;49.590;11.026;2023-08-20T01:08:40;9.53;;;5.47;;
29280;SDS011;25048;49.590;11.026;2023-08-20T01:11:16;10.08;;;5.95;;
29280;SDS011;25048;49.590;11.026;2023-08-20T01:13:39;7.03;;;5.78;;
29280;SDS011;25048;49.590;11.026;2023-08-20T01:16:06;7.47;;;5.80;;
29280;SDS011;25048;49.590;11.026;2023-08-20T01:18:34;9.38;;;5.37;;
29280;SDS011;25048;49.590;11.026;2023-08-20T01:21:02;7.55;;;5.03;;
29280;SDS011;25048;49.590;11.026;2023-08-20T01:23:52;10.70;;;8.00;;
29280;SDS011;25048;49.590;11.026;2023-08-20T01:26:27;9.05;;;5.85;;
29280;SDS011;25048;49.590;11.026;2023-08-20T01:29:07;7.80;;;5.97;;
29280;SDS011;25048;49.590;11.026;2023-08-20T01:31:37;15.38;;;6.08;;
29280;SDS011;25048;49.590;11.026;2023-08-20T01:34:05;11.35;;;6.12;;
29280;SDS011;25048;49.590;11.026;2023-08-20T01:36:33;6.83;;;5.95;;
29280;SDS011;25048;49.590;11.026;2023-08-20T01:39:00;8.58;;;6.37;;
29280;SDS011;25048;49.590;11.026;2023-08-20T01:41:30;8.95;;;5.87;;
29280;SDS011;25048;49.590;11.026;2023-08-20T01:43:57;11.35;;;6.17;;
29280;SDS011;25048;49.590;11.026;2023-08-20T01:46:25;9.53;;;5.87;;
29280;SDS011;25048;49.590;11.026;2023-08-20T01:48:52;7.95;;;6.05;;
29280;SDS011;25048;49.590;11.026;2023-08-20T01:51:20;7.87;;;5.47;;
29280;SDS011;25048;49.590;11.026;2023-08-20T01:53:47;7.90;;;5.22;;
29280;SDS011;25048;49.590;11.026;2023-08-20T01:56:15;8.65;;;5.05;;
29280;SDS011;25048;49.590;11.026;2023-08-20T01:58:42;8.38;;;6.00;;
29280;SDS011;25048;49.590;11.026;2023-08-20T02:01:10;6.70;;;5.47;;
29280;SDS011;25048;49.590;11.026;2023-08-20T02:03:37;8.53;;;5.37;;
29280;SDS011;25048;49.590;11.026;2023-08-20T02:06:05;11.03;;;6.20;;
29280;SDS011;25048;49.590;11.026;2023-08-20T02:08:32;12.53;;;6.83;;
29280;SDS011;25048;49.590;11.026;2023-08-20T02:11:00;10.98;;;6.37;;
29280;SDS011;25048;49.590;11.026;2023-08-20T02:13:30;8.40;;;5.60;;
29280;SDS011;25048;49.590;11.026;2023-08-20T02:16:01;12.03;;;6.20;;
29280;SDS011;25048;49.590;11.026;2023-08-20T02:18:30;9.18;;;6.03;;
29280;SDS011;25048;49.590;11.026;2023-08-20T02:20:58;8.48;;;5.78;;
29280;SDS011;25048;49.590;11.026;2023-08-20T02:23:25;8.30;;;6.55;;
29280;SDS011;25048;49.590;11.026;2023-08-20T02:25:53;9.05;;;5.90;;
29280;SDS011;25048;49.590;11.026;2023-08-20T02:28:20;10.20;;;6.15;;
29280;SDS011;25048;49.590;11.026;2023-08-20T02:30:48;6.90;;;5.25;;
29280;SDS011;25048;49.590;11.026;2023-08-20T02:33:15;8.60;;;6.15;;
29280;SDS011;25048;49.590;11.026;2023-08-20T02:35:43;17.55;;;6.95;;
29280;SDS011;25048;49.590;11.026;2023-08-20T02:38:10;8.70;;;5.78;;
29280;SDS011;25048;49.590;11.026;2023-08-20T02:40:41;8.70;;;6.75;;
29280;SDS011;25048;49.590;11.026;2023-08-20T02:43:09;7.55;;;5.80;;
29280;SDS011;25048;49.590;11.026;2023-08-20T02:45:40;10.18;;;6.35;;
29280;SDS011;25048;49.590;11.026;2023-08-20T02:48:08;12.18;;;6.80;;
29280;SDS011;25048;49.590;11.026;2023-08-20T02:50:36;11.30;;;6.30;;
29280;SDS011;25048;49.590;11.026;2023-08-20T02:53:04;18.20;;;6.22;;
29280;SDS011;25048;49.590;11.026;2023-08-20T02:55:32;9.33;;;6.03;;
29280;SDS011;25048;49.590;11.026;2023-08-20T02:58:01;7.75;;;5.92;;
29280;SDS011;25048;49.590;11.026;2023-08-20T03:00:35;6.17;;;5.53;;
29280;SDS011;25048;49.590;11.026;2023-08-20T03:03:02;8.60;;;5.95;;
29280;SDS011;25048;49.590;11.026;2023-08-20T03:05:32;6.92;;;5.75;;
29280;SDS011;25048;49.590;11.026;2023-08-20T03:08:00;8.75;;;5.90;;
29280;SDS011;25048;49.590;11.026;2023-08-20T03:10:30;13.65;;;6.60;;
29280;SDS011;25048;49.590;11.026;2023-08-20T03:13:01;11.20;;;6.40;;
29280;SDS011;25048;49.590;11.026;2023-08-20T03:15:29;10.13;;;6.50;;
29280;SDS011;25048;49.590;11.026;2023-08-20T03:17:57;11.28;;;6.62;;
29280;SDS011;25048;49.590;11.026;2023-08-20T03:20:24;11.00;;;6.40;;
29280;SDS011;25048;49.590;11.026;2023-08-20T03:22:53;8.78;;;6.20;;
29280;SDS011;25048;49.590;11.026;2023-08-20T03:25:21;14.65;;;6.17;;
29280;SDS011;25048;49.590;11.026;2023-08-20T03:27:49;8.43;;;6.42;;
29280;SDS011;25048;49.590;11.026;2023-08-20T03:30:18;9.13;;;6.28;;
29280;SDS011;25048;49.590;11.026;2023-08-20T03:32:46;7.30;;;6.50;;
29280;SDS011;25048;49.590;11.026;2023-08-20T03:35:13;9.03;;;7.40;;
29280;SDS011;25048;49.590;11.026;2023-08-20T03:37:41;8.88;;;6.28;;
29280;SDS011;25048;49.590;11.026;2023-08-20T03:40:11;8.75;;;6.78;;
29280;SDS011;25048;49.590;11.026;2023-08-20T03:42:38;10.15;;;6.58;;
29280;SDS011;25048;49.590;11.026;2023-08-20T03:45:05;11.40;;;6.55;;
29280;SDS011;25048;49.590;11.026;2023-08-20T03:47:34;8.55;;;5.92;;
29280;SDS011;25048;49.590;11.026;2023-08-20T03:50:02;9.38;;;6.47;;
29280;SDS011;25048;49.590;11.026;2023-08-20T03:52:31;8.55;;;6.08;;
29280;SDS011;25048;49.590;11.026;2023-08-20T03:54:59;11.85;;;7.15;;
29280;SDS011;25048;49.590;11.026;2023-08-20T03:57:26;10.00;;;6.28;;
29280;SDS011;25048;49.590;11.026;2023-08-20T03:59:54;8.53;;;6.50;;
29280;SDS011;25048;49.590;11.026;2023-08-20T04:02:21;9.88;;;6.62;;
29280;SDS011;25048;49.590;11.026;2023-08-20T04:04:49;13.45;;;6.72;;
29280;SDS011;25048;49.590;11.026;2023-08-20T04:07:17;9.93;;;6.95;;
29280;SDS011;25048;49.590;11.026;2023-08-20T04:09:45;11.63;;;7.05;;
29280;SDS011;25048;49.590;11.026;2023-08-20T04:12:13;8.40;;;6.40;;
29280;SDS011;25048;49.590;11.026;2023-08-20T04:14:40;12.58;;;6.55;;
29280;SDS011;25048;49.590;11.026;2023-08-20T04:17:07;9.23;;;6.10;;
29280;SDS011;25048;49.590;11.026;2023-08-20T04:19:35;7.30;;;6.45;;
29280;SDS011;25048;49.590;11.026;2023-08-20T04:22:02;9.50;;;6.70;;
29280;SDS011;25048;49.590;11.026;2023-08-20T04:24:30;12.18;;;6.40;;
29280;SDS011;25048;49.590;11.026;2023-08-20T04:26:57;9.80;;;6.20;;
29280;SDS011;25048;49.590;11.026;2023-08-20T04:29:25;9.53;;;6.55;;
29280;SDS011;25048;49.590;11.026;2023-08-20T04:31:53;12.98;;;6.08;;
29280;SDS011;25048;49.590;11.026;2023-08-20T04:34:20;13.43;;;6.78;;
29280;SDS011;25048;49.590;11.026;2023-08-20T04:36:48;12.65;;;6.12;;
29280;SDS011;25048;49.590;11.026;2023-08-20T04:39:15;7.12;;;5.67;;
29280;SDS011;25048;49.590;11.026;2023-08-20T04:41:44;10.58;;;5.97;;
29280;SDS011;25048;49.590;11.026;2023-08-20T04:44:11;9.98;;;6.47;;
29280;SDS011;25048;49.590;11.026;2023-08-20T04:46:39;8.35;;;6.10;;
29280;SDS011;25048;49.590;11.026;2023-08-20T04:49:06;11.90;;;6.72;;
29280;SDS011;25048;49.590;11.026;2023-08-20T04:51:34;9.93;;;6.85;;
29280;SDS011;25048;49.590;11.026;2023-08-20T04:54:01;8.68;;;6.72;;
29280;SDS011;25048;49.590;11.026;2023-08-20T04:56:29;8.05;;;6.47;;
29280;SDS011;25048;49.590;11.026;2023-08-20T04:58:57;9.70;;;6.83;;
29280;SDS011;25048;49.590;11.026;2023-08-20T05:01:24;8.38;;;5.85;;
29280;SDS011;25048;49.590;11.026;2023-08-20T05:03:52;9.23;;;7.03;;
29280;SDS011;25048;49.590;11.026;2023-08-20T05:06:19;15.30;;;6.25;;
29280;SDS011;25048;49.590;11.026;2023-08-20T05:08:47;9.68;;;6.37;;
29280;SDS011;25048;49.590;11.026;2023-08-20T05:11:14;7.00;;;5.67;;
29280;SDS011;25048;49.590;11.026;2023-08-20T05:13:43;9.45;;;5.75;;
29280;SDS011;25048;49.590;11.026;2023-08-20T05:16:11;8.75;;;6.05;;
29280;SDS011;25048;49.590;11.026;2023-08-20T05:18:39;11.35;;;6.08;;
29280;SDS011;25048;49.590;11.026;2023-08-20T05:21:06;8.98;;;6.15;;
29280;SDS011;25048;49.590;11.026;2023-08-20T05:23:34;9.98;;;6.35;;
29280;SDS011;25048;49.590;11.026;2023-08-20T05:26:01;14.38;;;6.90;;
29280;SDS011;25048;49.590;11.026;2023-08-20T05:28:29;11.55;;;7.17;;
29280;SDS011;25048;49.590;11.026;2023-08-20T05:30:56;8.23;;;6.05;;
29280;SDS011;25048;49.590;11.026;2023-08-20T05:33:24;9.30;;;7.12;;
29280;SDS011;25048;49.590;11.026;2023-08-20T05:35:52;10.03;;;6.25;;
29280;SDS011;25048;49.590;11.026;2023-08-20T05:38:19;7.72;;;6.47;;
29280;SDS011;25048;49.590;11.026;2023-08-20T05:40:47;9.48;;;6.75;;
29280;SDS011;25048;49.590;11.026;2023-08-20T05:43:14;9.88;;;6.45;;
29280;SDS011;25048;49.590;11.026;2023-08-20T05:45:42;7.60;;;5.90;;
29280;SDS011;25048;49.590;11.026;2023-08-20T05:48:09;8.33;;;6.35;;
29280;SDS011;25048;49.590;11.026;2023-08-20T05:50:37;8.70;;;6.05;;
29280;SDS011;25048;49.590;11.026;2023-08-20T05:53:04;12.73;;;6.87;;
29280;SDS011;25048;49.590;11.026;2023-08-20T05:55:32;8.08;;;5.67;;
29280;SDS011;25048;49.590;11.026;2023-08-20T05:57:59;7.85;;;5.80;;
29280;SDS011;25048;49.590;11.026;2023-08-20T06:00:28;9.15;;;6.17;;
29280;SDS011;25048;49.590;11.026;2023-08-20T06:02:55;8.23;;;5.85;;
29280;SDS011;25048;49.590;11.026;2023-08-20T06:05:23;10.00;;;6.03;;
29280;SDS011;25048;49.590;11.026;2023-08-20T06:07:50;7.28;;;5.53;;
29280;SDS011;25048;49.590;11.026;2023-08-20T06:10:17;8.80;;;5.80;;
29280;SDS011;25048;49.590;11.026;2023-08-20T06:12:45;9.78;;;5.80;;
29280;SDS011;25048;49.590;11.026;2023-08-20T06:15:13;8.93;;;5.90;;
29280;SDS011;25048;49.590;11.026;2023-08-20T06:17:41;6.72;;;5.80;;
29280;SDS011;25048;49.590;11.026;2023-08-20T06:20:08;7.85;;;6.17;;
29280;SDS011;25048;49.590;11.026;2023-08-20T06:22:37;7.37;;;6.42;;
29280;SDS011;25048;49.590;11.026;2023-08-20T06:25:05;10.78;;;5.70;;
29280;SDS011;25048;49.590;11.026;2023-08-20T06:27:33;8.93;;;5.40;;
29280;SDS011;25048;49.590;11.026;2023-08-20T06:30:01;10.38;;;5.97;;
29280;SDS011;25048;49.590;11.026;2023-08-20T06:32:28;12.85;;;7.15;;
29280;SDS011;25048;49.590;11.026;2023-08-20T06:34:56;7.28;;;5.90;;
29280;SDS011;25048;49.590;11.026;2023-08-20T06:37:23;10.70;;;6.50;;
29280;SDS011;25048;49.590;11.026;2023-08-20T06:39:51;9.43;;;6.33;;
29280;SDS011;25048;49.590;11.026;2023-08-20T06:42:18;9.70;;;5.95;;
29280;SDS011;25048;49.590;11.026;2023-08-20T06:44:46;7.17;;;5.87;;
29280;SDS011;25048;49.590;11.026;2023-08-20T06:47:13;11.03;;;5.80;;
29280;SDS011;25048;49.590;11.026;2023-08-20T06:49:41;10.15;;;6.50;;
29280;SDS011;25048;49.590;11.026;2023-08-20T06:52:08;10.18;;;6.08;;
29280;SDS011;25048;49.590;11.026;2023-08-20T06:54:36;10.53;;;6.20;;
29280;SDS011;25048;49.590;11.026;2023-08-20T06:57:03;10.68;;;6.45;;
29280;SDS011;25048;49.590;11.026;2023-08-20T06:59:31;6.90;;;6.20;;
29280;SDS011;25048;49.590;11.026;2023-08-20T07:01:58;10.23;;;5.60;;
29280;SDS011;25048;49.590;11.026;2023-08-20T07:04:26;10.58;;;6.30;;
29280;SDS011;25048;49.590;11.026;2023-08-20T07:06:53;7.75;;;5.85;;
29280;SDS011;25048;49.590;11.026;2023-08-20T07:09:21;10.43;;;7.00;;
29280;SDS011;25048;49.590;11.026;2023-08-20T07:11:48;11.38;;;6.45;;
29280;SDS011;25048;49.590;11.026;2023-08-20T07:14:16;11.38;;;6.33;;
29280;SDS011;25048;49.590;11.026;2023-08-20T07:16:43;7.85;;;6.80;;
29280;SDS011;25048;49.590;11.026;2023-08-20T07:19:11;11.75;;;6.72;;
29280;SDS011;25048;49.590;11.026;2023-08-20T07:21:38;10.48;;;6.92;;
29280;SDS011;25048;49.590;11.026;2023-08-20T07:24:06;14.25;;;6.83;;
29280;SDS011;25048;49.590;11.026;2023-08-20T07:26:34;10.88;;;7.40;;
29280;SDS011;25048;49.590;11.026;2023-08-20T07:29:01;9.25;;;6.65;;
29280;SDS011;25048;49.590;11.026;2023-08-20T07:31:29;10.03;;;7.90;;
29280;SDS011;25048;49.590;11.026;2023-08-20T07:34:00;12.00;;;7.17;;
29280;SDS011;25048;49.590;11.026;2023-08-20T07:36:28;8.35;;;7.45;;
29280;SDS011;25048;49.590;11.026;2023-08-20T07:38:56;12.15;;;6.80;;
29280;SDS011;25048;49.590;11.026;2023-08-20T07:41:24;11.10;;;6.37;;
29280;SDS011;25048;49.590;11.026;2023-08-20T07:43:51;7.78;;;6.45;;
29280;SDS011;25048;49.590;11.026;2023-08-20T07:46:19;14.58;;;7.42;;
29280;SDS011;25048;49.590;11.026;2023-08-20T07:48:46;12.35;;;7.00;;
29280;SDS011;25048;49.590;11.026;2023-08-20T07:51:14;13.10;;;7.05;;
29280;SDS011;25048;49.590;11.026;2023-08-20T07:53:41;8.23;;;6.70;;
29280;SDS011;25048;49.590;11.026;2023-08-20T07:56:09;8.85;;;6.05;;
29280;SDS011;25048;49.590;11.026;2023-08-20T07:58:36;8.15;;;6.60;;
29280;SDS011;25048;49.590;11.026;2023-08-20T08:01:04;8.03;;;6.10;;
29280;SDS011;25048;49.590;11.026;2023-08-20T08:03:31;9.33;;;6.28;;
29280;SDS011;25048;49.590;11.026;2023-08-20T08:05:59;11.75;;;6.05;;
29280;SDS011;25048;49.590;11.026;2023-08-20T08:08:26;9.05;;;5.72;;
29280;SDS011;25048;49.590;11.026;2023-08-20T08:10:54;9.25;;;6.33;;
29280;SDS011;25048;49.590;11.026;2023-08-20T08:13:22;9.50;;;6.25;;
29280;SDS011;25048;49.590;11.026;2023-08-20T08:15:50;13.08;;;6.08;;
29280;SDS011;25048;49.590;11.026;2023-08-20T08:18:21;13.03;;;6.33;;
29280;SDS011;25048;49.590;11.026;2023-08-20T08:20:49;9.10;;;5.90;;
29280;SDS011;25048;49.590;11.026;2023-08-20T08:23:16;6.95;;;5.70;;
29280;SDS011;25048;49.590;11.026;2023-08-20T08:25:44;8.35;;;5.85;;
29280;SDS011;25048;49.590;11.026;2023-08-20T08:28:11;8.43;;;5.33;;
29280;SDS011;25048;49.590;11.026;2023-08-20T08:30:39;7.87;;;6.12;;
29280;SDS011;25048;49.590;11.026;2023-08-20T08:33:06;7.70;;;6.33;;
29280;SDS011;25048;49.590;11.026;2023-08-20T08:35:34;7.47;;;5.90;;
29280;SDS011;25048;49.590;11.026;2023-08-20T08:38:01;10.50;;;6.08;;
29280;SDS011;25048;49.590;11.026;2023-08-20T08:40:30;8.68;;;6.25;;
29280;SDS011;25048;49.590;11.026;2023-08-20T08:42:59;6.10;;;5.50;;
29280;SDS011;25048;49.590;11.026;2023-08-20T08:45:28;7.87;;;5.90;;
29280;SDS011;25048;49.590;11.026;2023-08-20T08:47:57;8.28;;;5.83;;
29280;SDS011;25048;49.590;11.026;2023-08-20T08:50:24;8.28;;;5.65;;
29280;SDS011;25048;49.590;11.026;2023-08-20T08:52:52;5.25;;;4.75;;
29280;SDS011;25048;49.590;11.026;2023-08-20T08:55:21;8.08;;;4.90;;
29280;SDS011;25048;49.590;11.026;2023-08-20T08:57:48;14.85;;;5.90;;
29280;SDS011;25048;49.590;11.026;2023-08-20T09:00:16;11.83;;;5.10;;
29280;SDS011;25048;49.590;11.026;2023-08-20T09:02:44;9.75;;;5.35;;
29280;SDS011;25048;49.590;11.026;2023-08-20T09:05:13;12.00;;;6.05;;
29280;SDS011;25048;49.590;11.026;2023-08-20T09:07:43;9.90;;;6.37;;
29280;SDS011;25048;49.590;11.026;2023-08-20T09:10:11;12.65;;;6.60;;
29280;SDS011;25048;49.590;11.026;2023-08-20T09:12:39;9.83;;;5.55;;
29280;SDS011;25048;49.590;11.026;2023-08-20T09:15:10;8.65;;;5.87;;
29280;SDS011;25048;49.590;11.026;2023-08-20T09:17:40;7.03;;;4.95;;
29280;SDS011;25048;49.590;11.026;2023-08-20T09:20:10;6.25;;;4.97;;
29280;SDS011;25048;49.590;11.026;2023-08-20T09:22:38;11.93;;;5.45;;
29280;SDS011;25048;49.590;11.026;2023-08-20T09:25:05;10.18;;;6.25;;
29280;SDS011;25048;49.590;11.026;2023-08-20T09:27:39;7.40;;;6.12;;
29280;SDS011;25048;49.590;11.026;2023-08-20T09:30:07;6.92;;;5.20;;
29280;SDS011;25048;49.590;11.026;2023-08-20T09:32:36;8.23;;;5.25;;
29280;SDS011;25048;49.590;11.026;2023-08-20T09:35:03;8.55;;;5.50;;
29280;SDS011;25048;49.590;11.026;2023-08-20T09:37:31;10.38;;;5.83;;
29280;SDS011;25048;49.590;11.026;2023-08-20T09:40:00;6.60;;;5.08;;
29280;SDS011;25048;49.590;11.026;2023-08-20T09:42:28;10.40;;;6.55;;
29280;SDS011;25048;49.590;11.026;2023-08-20T09:44:58;6.80;;;4.85;;
29280;SDS011;25048;49.590;11.026;2023-08-20T09:47:30;9.65;;;5.03;;
29280;SDS011;25048;49.590;11.026;2023-08-20T09:50:00;7.10;;;4.95;;
29280;SDS011;25048;49.590;11.026;2023-08-20T09:52:34;8.10;;;4.58;;
29280;SDS011;25048;49.590;11.026;2023-08-20T09:55:08;7.55;;;4.65;;
29280;SDS011;25048;49.590;11.026;2023-08-20T09:57:38;10.32;;;5.37;;
29280;SDS011;25048;49.590;11.026;2023-08-20T10:00:07;7.58;;;5.22;;
29280;SDS011;25048;49.590;11.026;2023-08-20T10:02:36;10.68;;;6.87;;
29280;SDS011;25048;49.590;11.026;2023-08-20T10:05:05;10.25;;;5.30;;
29280;SDS011;25048;49.590;11.026;2023-08-20T10:07:34;5.87;;;5.08;;
29280;SDS011;25048;49.590;11.026;2023-08-20T10:10:06;8.60;;;5.30;;
29280;SDS011;25048;49.590;11.026;2023-08-20T10:12:35;6.15;;;5.12;;
29280;SDS011;25048;49.590;11.026;2023-08-20T10:15:11;7.70;;;5.10;;
29280;SDS011;25048;49.590;11.026;2023-08-20T10:17:38;7.97;;;4.58;;
29280;SDS011;25048;49.590;11.026;2023-08-20T10:20:08;13.18;;;4.97;;
29280;SDS011;25048;49.590;11.026;2023-08-20T10:22:39;6.92;;;5.10;;
29280;SDS011;25048;49.590;11.026;2023-08-20T10:25:22;8.65;;;5.00;;
29280;SDS011;25048;49.590;11.026;2023-08-20T10:27:40;7.60;;;5.00;;
29280;SDS011;25048;49.590;11.026;2023-08-20T10:30:11;6.03;;;4.62;;
29280;SDS011;25048;49.590;11.026;2023-08-20T10:32:53;8.93;;;4.53;;
29280;SDS011;25048;49.590;11.026;2023-08-20T10:35:23;6.75;;;3.95;;
29280;SDS011;25048;49.590;11.026;2023-08-20T10:38:11;7.10;;;5.08;;
29280;SDS011;25048;49.590;11.026;2023-08-20T10:41:05;4.45;;;3.67;;
29280;SDS011;25048;49.590;11.026;2023-08-20T10:43:28;5.80;;;4.10;;
29280;SDS011;25048;49.590;11.026;2023-08-20T10:48:38;6.78;;;3.98;;
29280;SDS011;25048;49.590;11.026;2023-08-20T10:51:08;7.25;;;3.70;;
29280;SDS011;25048;49.590;11.026;2023-08-20T10:53:40;6.22;;;3.58;;
29280;SDS011;25048;49.590;11.026;2023-08-20T10:56:13;5.45;;;4.30;;
29280;SDS011;25048;49.590;11.026;2023-08-20T10:58:43;5.87;;;3.80;;
29280;SDS011;25048;49.590;11.026;2023-08-20T11:01:18;8.65;;;3.87;;
29280;SDS011;25048;49.590;11.026;2023-08-20T11:03:43;6.55;;;3.87;;
29280;SDS011;25048;49.590;11.026;2023-08-20T11:06:12;7.53;;;3.98;;
29280;SDS011;25048;49.590;11.026;2023-08-20T11:08:39;5.45;;;4.40;;
29280;SDS011;25048;49.590;11.026;2023-08-20T11:11:09;8.18;;;4.58;;
29280;SDS011;25048;49.590;11.026;2023-08-20T11:13:37;7.30;;;3.77;;
29280;SDS011;25048;49.590;11.026;2023-08-20T11:16:05;4.72;;;3.98;;
29280;SDS011;25048;49.590;11.026;2023-08-20T11:18:33;8.88;;;4.40;;
29280;SDS011;25048;49.590;11.026;2023-08-20T11:21:01;7.92;;;3.72;;
29280;SDS011;25048;49.590;11.026;2023-08-20T11:23:29;7.70;;;4.40;;
29280;SDS011;25048;49.590;11.026;2023-08-20T11:25:58;7.17;;;4.75;;
29280;SDS011;25048;49.590;11.026;2023-08-20T11:28:26;7.72;;;5.10;;
29280;SDS011;25048;49.590;11.026;2023-08-20T11:30:54;8.58;;;4.72;;
29280;SDS011;25048;49.590;11.026;2023-08-20T11:33:23;7.22;;;4.40;;
29280;SDS011;25048;49.590;11.026;2023-08-20T11:35:52;6.97;;;4.28;;
29280;SDS011;25048;49.590;11.026;2023-08-20T11:38:21;8.05;;;4.67;;
29280;SDS011;25048;49.590;11.026;2023-08-20T11:40:51;7.08;;;4.00;;
29280;SDS011;25048;49.590;11.026;2023-08-20T11:43:18;7.65;;;4.60;;
29280;SDS011;25048;49.590;11.026;2023-08-20T11:45:51;7.42;;;4.33;;
29280;SDS011;25048;49.590;11.026;2023-08-20T11:48:16;6.42;;;4.65;;
29280;SDS011;25048;49.590;11.026;2023-08-20T11:50:43;7.30;;;4.37;;
29280;SDS011;25048;49.590;11.026;2023-08-20T11:53:11;7.47;;;4.80;;
29280;SDS011;25048;49.590;11.026;2023-08-20T11:55:39;7.03;;;4.62;;
29280;SDS011;25048;49.590;11.026;2023-08-20T11:58:13;5.28;;;4.78;;
29280;SDS011;25048;49.590;11.026;2023-08-20T12:00:41;9.13;;;4.67;;
29280;SDS011;25048;49.590;11.026;2023-08-20T12:03:09;5.85;;;4.58;;
29280;SDS011;25048;49.590;11.026;2023-08-20T12:05:36;8.20;;;4.05;;
29280;SDS011;25048;49.590;11.026;2023-08-20T12:08:05;7.35;;;4.75;;
29280;SDS011;25048;49.590;11.026;2023-08-20T12:10:33;9.93;;;4.78;;
29280;SDS011;25048;49.590;11.026;2023-08-20T12:13:00;7.50;;;4.62;;
29280;SDS011;25048;49.590;11.026;2023-08-20T12:15:29;7.85;;;4.70;;
29280;SDS011;25048;49.590;11.026;2023-08-20T12:17:57;6.70;;;4.22;;
29280;SDS011;25048;49.590;11.026;2023-08-20T12:20:30;8.35;;;4.30;;
29280;SDS011;25048;49.590;11.026;2023-08-20T12:23:00;6.62;;;4.78;;
29280;SDS011;25048;49.590;11.026;2023-08-20T12:25:30;7.42;;;4.60;;
29280;SDS011;25048;49.590;11.026;2023-08-20T12:28:00;6.50;;;4.55;;
29280;SDS011;25048;49.590;11.026;2023-08-20T12:30:30;7.87;;;4.85;;
29280;SDS011;25048;49.590;11.026;2023-08-20T12:32:59;9.18;;;5.17;;
29280;SDS011;25048;49.590;11.026;2023-08-20T12:35:28;9.43;;;4.42;;
29280;SDS011;25048;49.590;11.026;2023-08-20T12:37:55;7.47;;;4.35;;
29280;SDS011;25048;49.590;11.026;2023-08-20T12:40:23;6.42;;;4.85;;
29280;SDS011;25048;49.590;11.026;2023-08-20T12:42:50;11.68;;;5.05;;
29280;SDS011;25048;49.590;11.026;2023-08-20T12:45:18;7.37;;;5.20;;
29280;SDS011;25048;49.590;11.026;2023-08-20T12:47:45;5.30;;;4.50;;
29280;SDS011;25048;49.590;11.026;2023-08-20T12:50:13;8.53;;;4.78;;
29280;SDS011;25048;49.590;11.026;2023-08-20T12:52:40;7.40;;;4.85;;
29280;SDS011;25048;49.590;11.026;2023-08-20T12:55:09;6.15;;;4.47;;
29280;SDS011;25048;49.590;11.026;2023-08-20T12:57:36;7.47;;;4.55;;
29280;SDS011;25048;49.590;11.026;2023-08-20T13:00:06;7.83;;;4.37;;
29280;SDS011;25048;49.590;11.026;2023-08-20T13:02:36;8.98;;;4.35;;
29280;SDS011;25048;49.590;11.026;2023-08-20T13:05:04;5.75;;;4.35;;
29280;SDS011;25048;49.590;11.026;2023-08-20T13:07:32;8.18;;;4.37;;
29280;SDS011;25048;49.590;11.026;2023-08-20T13:10:00;7.35;;;4.28;;
29280;SDS011;25048;49.590;11.026;2023-08-20T13:12:27;10.53;;;4.00;;
29280;SDS011;25048;49.590;11.026;2023-08-20T13:14:57;6.35;;;4.00;;
29280;SDS011;25048;49.590;11.026;2023-08-20T13:17:25;5.03;;;4.12;;
29280;SDS011;25048;49.590;11.026;2023-08-20T13:19:53;6.65;;;4.35;;
29280;SDS011;25048;49.590;11.026;2023-08-20T13:22:20;14.00;;;4.67;;
29280;SDS011;25048;49.590;11.026;2023-08-20T13:24:48;9.90;;;4.58;;
29280;SDS011;25048;49.590;11.026;2023-08-20T13:27:15;6.28;;;4.00;;
29280;SDS011;25048;49.590;11.026;2023-08-20T13:29:43;6.28;;;4.47;;
29280;SDS011;25048;49.590;11.026;2023-08-20T13:32:11;5.65;;;4.20;;
29280;SDS011;25048;49.590;11.026;2023-08-20T13:34:38;5.90;;;4.72;;
29280;SDS011;25048;49.590;11.026;2023-08-20T13:37:06;7.42;;;4.62;;
29280;SDS011;25048;49.590;11.026;2023-08-20T13:39:34;8.48;;;4.28;;
29280;SDS011;25048;49.590;11.026;2023-08-20T13:42:02;9.65;;;4.22;;
29280;SDS011;25048;49.590;11.026;2023-08-20T13:44:29;6.40;;;4.33;;
29280;SDS011;25048;49.590;11.026;2023-08-20T13:46:57;5.90;;;4.40;;
29280;SDS011;25048;49.590;11.026;2023-08-20T13:49:25;8.55;;;4.78;;
29280;SDS011;25048;49.590;11.026;2023-08-20T13:51:52;6.75;;;4.42;;
29280;SDS011;25048;49.590;11.026;2023-08-20T13:54:20;5.60;;;4.42;;
29280;SDS011;25048;49.590;11.026;2023-08-20T13:56:47;5.42;;;3.52;;
29280;SDS011;25048;49.590;11.026;2023-08-20T13:59:15;8.18;;;4.35;;
29280;SDS011;25048;49.590;11.026;2023-08-20T14:01:42;10.13;;;4.25;;
29280;SDS011;25048;49.590;11.026;2023-08-20T14:04:10;6.35;;;4.00;;
29280;SDS011;25048;49.590;11.026;2023-08-20T14:06:37;10.30;;;3.98;;
29280;SDS011;25048;49.590;11.026;2023-08-20T14:09:05;10.40;;;4.67;;
29280;SDS011;25048;49.590;11.026;2023-08-20T14:11:32;7.08;;;4.20;;
29280;SDS011;25048;49.590;11.026;2023-08-20T14:14:00;5.65;;;3.42;;
29280;SDS011;25048;49.590;11.026;2023-08-20T14:16:27;6.75;;;3.30;;
29280;SDS011;25048;49.590;11.026;2023-08-20T14:18:55;8.30;;;3.95;;
29280;SDS011;25048;49.590;11.026;2023-08-20T14:21:22;5.72;;;3.47;;
29280;SDS011;25048;49.590;11.026;2023-08-20T14:23:50;8.63;;;3.83;;
29280;SDS011;25048;49.590;11.026;2023-08-20T14:26:18;5.40;;;3.85;;
29280;SDS011;25048;49.590;11.026;2023-08-20T14:28:45;10.30;;;4.12;;
29280;SDS011;25048;49.590;11.026;2023-08-20T14:31:13;5.70;;;3.80;;
29280;SDS011;25048;49.590;11.026;2023-08-20T14:33:41;6.75;;;3.83;;
29280;SDS011;25048;49.590;11.026;2023-08-20T14:36:09;6.47;;;3.37;;
29280;SDS011;25048;49.590;11.026;2023-08-20T14:38:37;7.47;;;4.00;;
29280;SDS011;25048;49.590;11.026;2023-08-20T14:41:04;6.70;;;3.40;;
29280;SDS011;25048;49.590;11.026;2023-08-20T14:43:32;5.03;;;3.75;;